sensor_id;sensor_type;location;lat;lon;timestamp;P1;durP1;ratioP1;P2;durP2;ratioP2
18249;SDS011;27980;52.126;5.572;2024-01-10T00:00:17;2.22;;;1.65;;
18249;SDS011;27980;52.126;5.572;2024-01-10T00:02:45;1.77;;;1.45;;
18249;SDS011;27980;52.126;5.572;2024-01-10T00:05:11;3.55;;;1.92;;
18249;SDS011;27980;52.126;5.572;2024-01-10T00:07:37;5.93;;;2.00;;
18249;SDS011;27980;52.126;5.572;2024-01-10T00:10:04;2.08;;;1.80;;
18249;SDS011;27980;52.126;5.572;2024-01-10T00:12:31;2.25;;;1.92;;
18249;SDS011;27980;52.126;5.572;2024-01-10T00:15:01;2.67;;;2.05;;
18249;SDS011;27980;52.126;5.572;2024-01-10T00:17:27;11.95;;;2.03;;
18249;SDS011;27980;52.126;5.572;2024-01-10T00:19:55;3.08;;;1.83;;
18249;SDS011;27980;52.126;5.572;2024-01-10T00:22:21;3.17;;;1.90;;
18249;SDS011;27980;52.126;5.572;2024-01-10T00:24:48;4.25;;;2.17;;
18249;SDS011;27980;52.126;5.572;2024-01-10T00:27:15;2.58;;;1.92;;
18249;SDS011;27980;52.126;5.572;2024-01-10T00:29:40;4.18;;;2.20;;
18249;SDS011;27980;52.126;5.572;2024-01-10T00:32:07;3.50;;;1.88;;
18249;SDS011;27980;52.126;5.572;2024-01-10T00:34:33;3.60;;;1.77;;
18249;SDS011;27980;52.126;5.572;2024-01-10T00:37:01;3.65;;;2.03;;
18249;SDS011;27980;52.126;5.572;2024-01-10T00:39:27;1.80;;;1.70;;
18249;SDS011;27980;52.126;5.572;2024-01-10T00:41:53;5.32;;;2.13;;
18249;SDS011;27980;52.126;5.572;2024-01-10T00:44:20;2.25;;;1.67;;
18249;SDS011;27980;52.126;5.572;2024-01-10T00:46:46;3.05;;;1.65;;
18249;SDS011;27980;52.126;5.572;2024-01-10T00:49:13;2.08;;;1.70;;
18249;SDS011;27980;52.126;5.572;2024-01-10T00:51:39;5.05;;;1.55;;
18249;SDS011;27980;52.126;5.572;2024-01-10T00:54:07;6.35;;;1.63;;
18249;SDS011;27980;52.126;5.572;2024-01-10T00:56:33;1.75;;;1.60;;
18249;SDS011;27980;52.126;5.572;2024-01-10T00:59:01;2.33;;;1.48;;
18249;SDS011;27980;52.126;5.572;2024-01-10T01:01:27;2.78;;;2.03;;
18249;SDS011;27980;52.126;5.572;2024-01-10T01:03:54;3.60;;;1.92;;
18249;SDS011;27980;52.126;5.572;2024-01-10T01:06:21;5.13;;;2.25;;
18249;SDS011;27980;52.126;5.572;2024-01-10T01:08:50;3.30;;;1.60;;
18249;SDS011;27980;52.126;5.572;2024-01-10T01:11:18;3.00;;;1.90;;
18249;SDS011;27980;52.126;5.572;2024-01-10T01:13:44;2.47;;;1.88;;
18249;SDS011;27980;52.126;5.572;2024-01-10T01:16:10;5.07;;;1.98;;
18249;SDS011;27980;52.126;5.572;2024-01-10T01:18:37;2.42;;;1.98;;
18249;SDS011;27980;52.126;5.572;2024-01-10T01:21:04;2.83;;;1.70;;
18249;SDS011;27980;52.126;5.572;2024-01-10T01:23:30;3.55;;;1.85;;
18249;SDS011;27980;52.126;5.572;2024-01-10T01:25:57;2.83;;;2.00;;
18249;SDS011;27980;52.126;5.572;2024-01-10T01:28:24;2.38;;;2.00;;
18249;SDS011;27980;52.126;5.572;2024-01-10T01:30:51;3.78;;;2.25;;
18249;SDS011;27980;52.126;5.572;2024-01-10T01:33:17;3.75;;;1.80;;
18249;SDS011;27980;52.126;5.572;2024-01-10T01:35:44;3.13;;;1.85;;
18249;SDS011;27980;52.126;5.572;2024-01-10T01:38:10;3.30;;;2.40;;
18249;SDS011;27980;52.126;5.572;2024-01-10T01:40:36;3.75;;;1.95;;
18249;SDS011;27980;52.126;5.572;2024-01-10T01:43:16;3.17;;;1.88;;
18249;SDS011;27980;52.126;5.572;2024-01-10T01:45:44;2.53;;;1.40;;
18249;SDS011;27980;52.126;5.572;2024-01-10T01:48:11;3.03;;;1.90;;
18249;SDS011;27980;52.126;5.572;2024-01-10T01:50:37;4.18;;;2.13;;
18249;SDS011;27980;52.126;5.572;2024-01-10T01:53:05;3.38;;;2.15;;
18249;SDS011;27980;52.126;5.572;2024-01-10T01:55:32;2.67;;;1.70;;
18249;SDS011;27980;52.126;5.572;2024-01-10T01:57:59;3.45;;;2.55;;
18249;SDS011;27980;52.126;5.572;2024-01-10T02:00:25;2.17;;;1.90;;
18249;SDS011;27980;52.126;5.572;2024-01-10T02:02:53;3.20;;;2.05;;
18249;SDS011;27980;52.126;5.572;2024-01-10T02:05:20;4.53;;;2.08;;
18249;SDS011;27980;52.126;5.572;2024-01-10T02:07:46;2.83;;;2.08;;
18249;SDS011;27980;52.126;5.572;2024-01-10T02:10:12;2.72;;;1.90;;
18249;SDS011;27980;52.126;5.572;2024-01-10T02:12:39;3.00;;;2.00;;
18249;SDS011;27980;52.126;5.572;2024-01-10T02:15:06;2.60;;;2.10;;
18249;SDS011;27980;52.126;5.572;2024-01-10T02:17:32;2.22;;;1.77;;
18249;SDS011;27980;52.126;5.572;2024-01-10T02:20:10;4.43;;;1.77;;
18249;SDS011;27980;52.126;5.572;2024-01-10T02:22:36;4.80;;;2.08;;
18249;SDS011;27980;52.126;5.572;2024-01-10T02:25:07;2.63;;;2.00;;
18249;SDS011;27980;52.126;5.572;2024-01-10T02:27:34;3.33;;;2.28;;
18249;SDS011;27980;52.126;5.572;2024-01-10T02:30:01;3.42;;;1.98;;
18249;SDS011;27980;52.126;5.572;2024-01-10T02:32:28;2.38;;;2.17;;
18249;SDS011;27980;52.126;5.572;2024-01-10T02:34:54;2.22;;;1.92;;
18249;SDS011;27980;52.126;5.572;2024-01-10T02:37:20;1.70;;;1.42;;
18249;SDS011;27980;52.126;5.572;2024-01-10T02:39:47;2.75;;;1.95;;
18249;SDS011;27980;52.126;5.572;2024-01-10T02:42:15;2.70;;;2.33;;
18249;SDS011;27980;52.126;5.572;2024-01-10T02:44:41;3.17;;;2.42;;
18249;SDS011;27980;52.126;5.572;2024-01-10T02:47:08;3.83;;;2.35;;
18249;SDS011;27980;52.126;5.572;2024-01-10T02:49:35;3.88;;;2.30;;
18249;SDS011;27980;52.126;5.572;2024-01-10T02:52:02;4.07;;;2.40;;
18249;SDS011;27980;52.126;5.572;2024-01-10T02:54:28;3.53;;;1.73;;
18249;SDS011;27980;52.126;5.572;2024-01-10T02:56:54;3.15;;;2.10;;
18249;SDS011;27980;52.126;5.572;2024-01-10T02:59:22;2.50;;;2.22;;
18249;SDS011;27980;52.126;5.572;2024-01-10T03:01:49;3.95;;;1.98;;
18249;SDS011;27980;52.126;5.572;2024-01-10T03:04:15;2.75;;;2.00;;
18249;SDS011;27980;52.126;5.572;2024-01-10T03:06:41;5.18;;;3.35;;
18249;SDS011;27980;52.126;5.572;2024-01-10T03:09:08;2.67;;;2.15;;
18249;SDS011;27980;52.126;5.572;2024-01-10T03:11:34;4.90;;;2.58;;
18249;SDS011;27980;52.126;5.572;2024-01-10T03:14:02;2.33;;;2.00;;
18249;SDS011;27980;52.126;5.572;2024-01-10T03:16:30;6.95;;;2.55;;
18249;SDS011;27980;52.126;5.572;2024-01-10T03:18:56;4.93;;;2.33;;
18249;SDS011;27980;52.126;5.572;2024-01-10T03:21:23;3.40;;;2.53;;
18249;SDS011;27980;52.126;5.572;2024-01-10T03:26:17;4.47;;;2.75;;
18249;SDS011;27980;52.126;5.572;2024-01-10T03:28:44;3.60;;;2.45;;
18249;SDS011;27980;52.126;5.572;2024-01-10T03:31:13;5.55;;;2.53;;
18249;SDS011;27980;52.126;5.572;2024-01-10T03:33:40;6.05;;;2.75;;
18249;SDS011;27980;52.126;5.572;2024-01-10T03:36:08;1.75;;;1.63;;
18249;SDS011;27980;52.126;5.572;2024-01-10T03:38:35;7.10;;;2.10;;
18249;SDS011;27980;52.126;5.572;2024-01-10T03:41:01;3.28;;;1.88;;
18249;SDS011;27980;52.126;5.572;2024-01-10T03:43:27;3.90;;;1.90;;
18249;SDS011;27980;52.126;5.572;2024-01-10T03:45:54;4.32;;;2.30;;
18249;SDS011;27980;52.126;5.572;2024-01-10T03:48:20;3.97;;;1.92;;
18249;SDS011;27980;52.126;5.572;2024-01-10T03:50:48;2.65;;;1.85;;
18249;SDS011;27980;52.126;5.572;2024-01-10T03:53:14;4.22;;;2.38;;
18249;SDS011;27980;52.126;5.572;2024-01-10T03:55:41;2.65;;;1.75;;
18249;SDS011;27980;52.126;5.572;2024-01-10T03:58:07;4.75;;;2.85;;
18249;SDS011;27980;52.126;5.572;2024-01-10T04:00:33;4.00;;;2.22;;
18249;SDS011;27980;52.126;5.572;2024-01-10T04:03:00;4.20;;;2.10;;
18249;SDS011;27980;52.126;5.572;2024-01-10T04:05:27;4.55;;;2.60;;
18249;SDS011;27980;52.126;5.572;2024-01-10T04:07:54;3.28;;;2.42;;
18249;SDS011;27980;52.126;5.572;2024-01-10T04:10:22;3.90;;;2.50;;
18249;SDS011;27980;52.126;5.572;2024-01-10T04:12:48;6.03;;;2.50;;
18249;SDS011;27980;52.126;5.572;2024-01-10T04:15:15;2.42;;;1.50;;
18249;SDS011;27980;52.126;5.572;2024-01-10T04:17:42;2.20;;;2.00;;
18249;SDS011;27980;52.126;5.572;2024-01-10T04:20:09;4.45;;;2.33;;
18249;SDS011;27980;52.126;5.572;2024-01-10T04:22:35;2.88;;;2.20;;
18249;SDS011;27980;52.126;5.572;2024-01-10T04:25:04;2.78;;;2.47;;
18249;SDS011;27980;52.126;5.572;2024-01-10T04:27:31;2.92;;;1.83;;
18249;SDS011;27980;52.126;5.572;2024-01-10T04:29:57;4.18;;;2.30;;
18249;SDS011;27980;52.126;5.572;2024-01-10T04:32:24;2.25;;;1.92;;
18249;SDS011;27980;52.126;5.572;2024-01-10T04:34:50;4.22;;;2.83;;
18249;SDS011;27980;52.126;5.572;2024-01-10T04:37:17;5.97;;;2.33;;
18249;SDS011;27980;52.126;5.572;2024-01-10T04:39:44;5.05;;;2.80;;
18249;SDS011;27980;52.126;5.572;2024-01-10T04:42:11;2.60;;;2.00;;
18249;SDS011;27980;52.126;5.572;2024-01-10T04:44:38;4.15;;;2.58;;
18249;SDS011;27980;52.126;5.572;2024-01-10T04:47:05;4.10;;;2.25;;
18249;SDS011;27980;52.126;5.572;2024-01-10T04:49:31;6.28;;;2.03;;
18249;SDS011;27980;52.126;5.572;2024-01-10T04:51:58;4.60;;;2.17;;
18249;SDS011;27980;52.126;5.572;2024-01-10T04:54:24;3.85;;;2.22;;
18249;SDS011;27980;52.126;5.572;2024-01-10T04:56:51;3.38;;;2.17;;
18249;SDS011;27980;52.126;5.572;2024-01-10T04:59:18;3.35;;;2.42;;
18249;SDS011;27980;52.126;5.572;2024-01-10T05:01:45;3.38;;;2.13;;
18249;SDS011;27980;52.126;5.572;2024-01-10T05:04:12;2.55;;;2.30;;
18249;SDS011;27980;52.126;5.572;2024-01-10T05:06:38;2.78;;;2.38;;
18249;SDS011;27980;52.126;5.572;2024-01-10T05:09:04;3.45;;;2.35;;
18249;SDS011;27980;52.126;5.572;2024-01-10T05:11:31;3.05;;;2.25;;
18249;SDS011;27980;52.126;5.572;2024-01-10T05:14:00;4.50;;;2.35;;
18249;SDS011;27980;52.126;5.572;2024-01-10T05:16:27;4.43;;;2.03;;
18249;SDS011;27980;52.126;5.572;2024-01-10T05:18:54;3.47;;;2.00;;
18249;SDS011;27980;52.126;5.572;2024-01-10T05:21:20;4.85;;;2.65;;
18249;SDS011;27980;52.126;5.572;2024-01-10T05:23:47;2.85;;;2.33;;
18249;SDS011;27980;52.126;5.572;2024-01-10T05:26:14;4.70;;;2.88;;
18249;SDS011;27980;52.126;5.572;2024-01-10T05:28:40;2.20;;;2.00;;
18249;SDS011;27980;52.126;5.572;2024-01-10T05:31:06;4.20;;;2.13;;
18249;SDS011;27980;52.126;5.572;2024-01-10T05:33:34;4.15;;;2.65;;
18249;SDS011;27980;52.126;5.572;2024-01-10T05:36:01;4.13;;;2.50;;
18249;SDS011;27980;52.126;5.572;2024-01-10T05:38:27;2.63;;;2.35;;
18249;SDS011;27980;52.126;5.572;2024-01-10T05:40:54;1.83;;;1.67;;
18249;SDS011;27980;52.126;5.572;2024-01-10T05:43:20;4.57;;;2.80;;
18249;SDS011;27980;52.126;5.572;2024-01-10T05:45:46;3.47;;;2.63;;
18249;SDS011;27980;52.126;5.572;2024-01-10T05:48:13;5.38;;;2.80;;
18249;SDS011;27980;52.126;5.572;2024-01-10T05:50:41;5.25;;;2.67;;
18249;SDS011;27980;52.126;5.572;2024-01-10T05:53:07;4.25;;;3.15;;
18249;SDS011;27980;52.126;5.572;2024-01-10T05:55:35;4.72;;;2.95;;
18249;SDS011;27980;52.126;5.572;2024-01-10T05:58:01;9.90;;;3.80;;
18249;SDS011;27980;52.126;5.572;2024-01-10T06:00:28;5.65;;;3.17;;
18249;SDS011;27980;52.126;5.572;2024-01-10T06:02:54;4.40;;;2.55;;
18249;SDS011;27980;52.126;5.572;2024-01-10T06:05:21;4.13;;;2.58;;
18249;SDS011;27980;52.126;5.572;2024-01-10T06:07:49;7.45;;;3.17;;
18249;SDS011;27980;52.126;5.572;2024-01-10T06:10:15;4.72;;;3.13;;
18249;SDS011;27980;52.126;5.572;2024-01-10T06:12:44;3.75;;;2.88;;
18249;SDS011;27980;52.126;5.572;2024-01-10T06:15:11;5.95;;;2.50;;
18249;SDS011;27980;52.126;5.572;2024-01-10T06:17:37;2.60;;;1.90;;
18249;SDS011;27980;52.126;5.572;2024-01-10T06:20:04;2.97;;;2.22;;
18249;SDS011;27980;52.126;5.572;2024-01-10T06:22:31;7.45;;;2.40;;
18249;SDS011;27980;52.126;5.572;2024-01-10T06:24:59;6.47;;;2.63;;
18249;SDS011;27980;52.126;5.572;2024-01-10T06:27:26;4.32;;;2.72;;
18249;SDS011;27980;52.126;5.572;2024-01-10T06:29:52;4.13;;;2.78;;
18249;SDS011;27980;52.126;5.572;2024-01-10T06:32:19;5.68;;;3.42;;
18249;SDS011;27980;52.126;5.572;2024-01-10T06:34:46;4.85;;;3.08;;
18249;SDS011;27980;52.126;5.572;2024-01-10T06:37:14;3.50;;;2.78;;
18249;SDS011;27980;52.126;5.572;2024-01-10T06:39:42;8.75;;;4.07;;
18249;SDS011;27980;52.126;5.572;2024-01-10T06:42:11;5.82;;;2.90;;
18249;SDS011;27980;52.126;5.572;2024-01-10T06:44:38;7.10;;;3.13;;
18249;SDS011;27980;52.126;5.572;2024-01-10T06:47:03;5.82;;;3.33;;
18249;SDS011;27980;52.126;5.572;2024-01-10T06:49:30;4.50;;;2.85;;
18249;SDS011;27980;52.126;5.572;2024-01-10T06:51:56;7.10;;;2.53;;
18249;SDS011;27980;52.126;5.572;2024-01-10T06:54:25;7.75;;;3.15;;
18249;SDS011;27980;52.126;5.572;2024-01-10T06:56:51;5.43;;;3.35;;
18249;SDS011;27980;52.126;5.572;2024-01-10T06:59:19;7.13;;;3.00;;
18249;SDS011;27980;52.126;5.572;2024-01-10T07:01:50;5.03;;;2.83;;
18249;SDS011;27980;52.126;5.572;2024-01-10T07:04:17;2.90;;;2.58;;
18249;SDS011;27980;52.126;5.572;2024-01-10T07:06:45;5.40;;;3.13;;
18249;SDS011;27980;52.126;5.572;2024-01-10T07:09:11;4.88;;;2.75;;
18249;SDS011;27980;52.126;5.572;2024-01-10T07:11:37;4.38;;;2.72;;
18249;SDS011;27980;52.126;5.572;2024-01-10T07:14:05;2.97;;;2.42;;
18249;SDS011;27980;52.126;5.572;2024-01-10T07:16:33;4.75;;;2.95;;
18249;SDS011;27980;52.126;5.572;2024-01-10T07:18:59;6.80;;;2.78;;
18249;SDS011;27980;52.126;5.572;2024-01-10T07:21:26;4.03;;;2.50;;
18249;SDS011;27980;52.126;5.572;2024-01-10T07:23:55;3.95;;;2.92;;
18249;SDS011;27980;52.126;5.572;2024-01-10T07:26:21;6.15;;;2.92;;
18249;SDS011;27980;52.126;5.572;2024-01-10T07:28:48;5.13;;;3.20;;
18249;SDS011;27980;52.126;5.572;2024-01-10T07:31:14;4.85;;;2.95;;
18249;SDS011;27980;52.126;5.572;2024-01-10T07:33:42;9.38;;;2.80;;
18249;SDS011;27980;52.126;5.572;2024-01-10T07:36:08;6.85;;;2.92;;
18249;SDS011;27980;52.126;5.572;2024-01-10T07:38:35;4.75;;;2.85;;
18249;SDS011;27980;52.126;5.572;2024-01-10T07:41:01;3.63;;;2.67;;
18249;SDS011;27980;52.126;5.572;2024-01-10T07:43:28;3.90;;;2.38;;
18249;SDS011;27980;52.126;5.572;2024-01-10T07:45:54;5.90;;;2.50;;
18249;SDS011;27980;52.126;5.572;2024-01-10T07:48:21;6.05;;;3.20;;
18249;SDS011;27980;52.126;5.572;2024-01-10T07:50:49;5.85;;;2.90;;
18249;SDS011;27980;52.126;5.572;2024-01-10T07:53:15;5.75;;;3.60;;
18249;SDS011;27980;52.126;5.572;2024-01-10T07:55:42;5.47;;;3.40;;
18249;SDS011;27980;52.126;5.572;2024-01-10T07:58:08;4.93;;;3.03;;
18249;SDS011;27980;52.126;5.572;2024-01-10T08:00:35;5.80;;;3.50;;
18249;SDS011;27980;52.126;5.572;2024-01-10T08:03:02;4.97;;;2.65;;
18249;SDS011;27980;52.126;5.572;2024-01-10T08:05:28;7.25;;;3.40;;
18249;SDS011;27980;52.126;5.572;2024-01-10T08:07:56;8.70;;;3.42;;
18249;SDS011;27980;52.126;5.572;2024-01-10T08:10:23;2.95;;;2.72;;
18249;SDS011;27980;52.126;5.572;2024-01-10T08:12:50;7.10;;;2.88;;
18249;SDS011;27980;52.126;5.572;2024-01-10T08:15:17;4.32;;;3.20;;
18249;SDS011;27980;52.126;5.572;2024-01-10T08:17:44;6.72;;;2.80;;
18249;SDS011;27980;52.126;5.572;2024-01-10T08:20:11;6.75;;;3.15;;
18249;SDS011;27980;52.126;5.572;2024-01-10T08:22:40;7.68;;;3.10;;
18249;SDS011;27980;52.126;5.572;2024-01-10T08:25:11;6.68;;;3.60;;
18249;SDS011;27980;52.126;5.572;2024-01-10T08:27:38;7.55;;;3.47;;
18249;SDS011;27980;52.126;5.572;2024-01-10T08:30:05;3.40;;;2.05;;
18249;SDS011;27980;52.126;5.572;2024-01-10T08:32:34;5.22;;;2.85;;
18249;SDS011;27980;52.126;5.572;2024-01-10T08:35:01;7.00;;;3.25;;
18249;SDS011;27980;52.126;5.572;2024-01-10T08:37:29;5.97;;;3.25;;
18249;SDS011;27980;52.126;5.572;2024-01-10T08:39:56;9.50;;;3.33;;
18249;SDS011;27980;52.126;5.572;2024-01-10T08:42:24;7.80;;;3.17;;
18249;SDS011;27980;52.126;5.572;2024-01-10T08:44:50;7.22;;;3.40;;
18249;SDS011;27980;52.126;5.572;2024-01-10T08:47:17;4.60;;;2.83;;
18249;SDS011;27980;52.126;5.572;2024-01-10T08:49:43;10.68;;;4.38;;
18249;SDS011;27980;52.126;5.572;2024-01-10T08:52:09;7.47;;;3.70;;
18249;SDS011;27980;52.126;5.572;2024-01-10T08:54:36;7.90;;;3.60;;
18249;SDS011;27980;52.126;5.572;2024-01-10T08:57:03;9.23;;;4.07;;
18249;SDS011;27980;52.126;5.572;2024-01-10T08:59:31;12.02;;;3.90;;
18249;SDS011;27980;52.126;5.572;2024-01-10T09:01:58;7.57;;;3.42;;
18249;SDS011;27980;52.126;5.572;2024-01-10T09:04:24;8.27;;;3.45;;
18249;SDS011;27980;52.126;5.572;2024-01-10T09:06:52;7.82;;;3.67;;
18249;SDS011;27980;52.126;5.572;2024-01-10T09:09:18;8.20;;;3.65;;
18249;SDS011;27980;52.126;5.572;2024-01-10T09:11:45;6.22;;;3.53;;
18249;SDS011;27980;52.126;5.572;2024-01-10T09:14:13;4.32;;;2.80;;
18249;SDS011;27980;52.126;5.572;2024-01-10T09:16:41;5.60;;;3.17;;
18249;SDS011;27980;52.126;5.572;2024-01-10T09:19:07;6.15;;;3.10;;
18249;SDS011;27980;52.126;5.572;2024-01-10T09:21:35;7.95;;;3.70;;
18249;SDS011;27980;52.126;5.572;2024-01-10T09:24:01;4.13;;;2.67;;
18249;SDS011;27980;52.126;5.572;2024-01-10T09:26:30;6.03;;;3.60;;
18249;SDS011;27980;52.126;5.572;2024-01-10T09:28:57;6.47;;;3.50;;
18249;SDS011;27980;52.126;5.572;2024-01-10T09:31:25;4.90;;;3.38;;
18249;SDS011;27980;52.126;5.572;2024-01-10T09:33:53;5.40;;;3.35;;
18249;SDS011;27980;52.126;5.572;2024-01-10T09:36:19;6.82;;;3.42;;
18249;SDS011;27980;52.126;5.572;2024-01-10T09:38:46;8.60;;;3.65;;
18249;SDS011;27980;52.126;5.572;2024-01-10T09:41:12;7.65;;;3.50;;
18249;SDS011;27980;52.126;5.572;2024-01-10T09:43:39;8.27;;;3.22;;
18249;SDS011;27980;52.126;5.572;2024-01-10T09:46:06;10.88;;;3.50;;
18249;SDS011;27980;52.126;5.572;2024-01-10T09:48:33;4.63;;;3.08;;
18249;SDS011;27980;52.126;5.572;2024-01-10T09:51:01;5.45;;;2.72;;
18249;SDS011;27980;52.126;5.572;2024-01-10T09:53:27;5.68;;;3.05;;
18249;SDS011;27980;52.126;5.572;2024-01-10T09:55:56;6.38;;;3.47;;
18249;SDS011;27980;52.126;5.572;2024-01-10T09:58:25;5.65;;;2.70;;
18249;SDS011;27980;52.126;5.572;2024-01-10T10:00:51;5.32;;;3.17;;
18249;SDS011;27980;52.126;5.572;2024-01-10T10:03:18;8.85;;;3.35;;
18249;SDS011;27980;52.126;5.572;2024-01-10T10:05:45;8.07;;;3.53;;
18249;SDS011;27980;52.126;5.572;2024-01-10T10:08:14;7.80;;;4.00;;
18249;SDS011;27980;52.126;5.572;2024-01-10T10:10:44;6.57;;;3.53;;
18249;SDS011;27980;52.126;5.572;2024-01-10T10:13:12;6.82;;;4.05;;
18249;SDS011;27980;52.126;5.572;2024-01-10T10:15:51;5.93;;;3.15;;
18249;SDS011;27980;52.126;5.572;2024-01-10T10:18:23;8.15;;;3.42;;
18249;SDS011;27980;52.126;5.572;2024-01-10T10:21:03;8.98;;;3.35;;
18249;SDS011;27980;52.126;5.572;2024-01-10T10:23:33;6.53;;;3.28;;
18249;SDS011;27980;52.126;5.572;2024-01-10T10:26:02;6.22;;;3.85;;
18249;SDS011;27980;52.126;5.572;2024-01-10T10:28:36;6.97;;;3.67;;
18249;SDS011;27980;52.126;5.572;2024-01-10T10:31:03;6.40;;;3.58;;
18249;SDS011;27980;52.126;5.572;2024-01-10T10:33:32;6.15;;;3.28;;
18249;SDS011;27980;52.126;5.572;2024-01-10T10:35:58;5.70;;;3.22;;
18249;SDS011;27980;52.126;5.572;2024-01-10T10:38:25;9.65;;;4.07;;
18249;SDS011;27980;52.126;5.572;2024-01-10T10:40:53;7.72;;;3.50;;
18249;SDS011;27980;52.126;5.572;2024-01-10T10:43:20;5.75;;;4.03;;
18249;SDS011;27980;52.126;5.572;2024-01-10T10:45:48;8.35;;;3.75;;
18249;SDS011;27980;52.126;5.572;2024-01-10T10:48:15;11.90;;;4.43;;
18249;SDS011;27980;52.126;5.572;2024-01-10T10:50:46;4.50;;;2.88;;
18249;SDS011;27980;52.126;5.572;2024-01-10T10:53:17;7.40;;;3.60;;
18249;SDS011;27980;52.126;5.572;2024-01-10T10:55:44;7.43;;;3.35;;
18249;SDS011;27980;52.126;5.572;2024-01-10T10:58:13;6.35;;;3.25;;
18249;SDS011;27980;52.126;5.572;2024-01-10T11:00:40;6.38;;;3.60;;
18249;SDS011;27980;52.126;5.572;2024-01-10T11:03:07;7.55;;;3.65;;
18249;SDS011;27980;52.126;5.572;2024-01-10T11:05:36;8.82;;;3.92;;
18249;SDS011;27980;52.126;5.572;2024-01-10T11:08:03;10.25;;;4.03;;
18249;SDS011;27980;52.126;5.572;2024-01-10T11:10:31;6.78;;;3.78;;
18249;SDS011;27980;52.126;5.572;2024-01-10T11:13:03;10.20;;;4.40;;
18249;SDS011;27980;52.126;5.572;2024-01-10T11:15:43;7.60;;;3.83;;
18249;SDS011;27980;52.126;5.572;2024-01-10T11:21:02;8.73;;;4.15;;
18249;SDS011;27980;52.126;5.572;2024-01-10T11:23:37;7.97;;;3.88;;
18249;SDS011;27980;52.126;5.572;2024-01-10T11:26:05;8.57;;;4.28;;
18249;SDS011;27980;52.126;5.572;2024-01-10T11:28:35;7.50;;;4.05;;
18249;SDS011;27980;52.126;5.572;2024-01-10T11:31:05;6.68;;;3.63;;
18249;SDS011;27980;52.126;5.572;2024-01-10T11:33:32;6.70;;;4.18;;
18249;SDS011;27980;52.126;5.572;2024-01-10T11:38:53;9.27;;;3.67;;
18249;SDS011;27980;52.126;5.572;2024-01-10T11:41:21;7.63;;;4.00;;
18249;SDS011;27980;52.126;5.572;2024-01-10T11:46:35;9.27;;;4.20;;
18249;SDS011;27980;52.126;5.572;2024-01-10T11:49:01;5.97;;;3.63;;
18249;SDS011;27980;52.126;5.572;2024-01-10T11:51:28;7.93;;;4.00;;
18249;SDS011;27980;52.126;5.572;2024-01-10T11:53:56;6.20;;;3.90;;
18249;SDS011;27980;52.126;5.572;2024-01-10T11:56:22;6.75;;;3.88;;
18249;SDS011;27980;52.126;5.572;2024-01-10T11:58:53;7.03;;;4.13;;
18249;SDS011;27980;52.126;5.572;2024-01-10T12:01:19;8.57;;;4.45;;
18249;SDS011;27980;52.126;5.572;2024-01-10T12:03:48;8.15;;;4.10;;
18249;SDS011;27980;52.126;5.572;2024-01-10T12:06:16;5.63;;;3.63;;
18249;SDS011;27980;52.126;5.572;2024-01-10T12:08:43;7.72;;;4.50;;
18249;SDS011;27980;52.126;5.572;2024-01-10T12:11:09;6.70;;;4.10;;
18249;SDS011;27980;52.126;5.572;2024-01-10T12:13:36;9.82;;;4.82;;
18249;SDS011;27980;52.126;5.572;2024-01-10T12:16:02;9.40;;;4.40;;
18249;SDS011;27980;52.126;5.572;2024-01-10T12:18:29;6.30;;;4.03;;
18249;SDS011;27980;52.126;5.572;2024-01-10T12:20:56;5.03;;;3.65;;
18249;SDS011;27980;52.126;5.572;2024-01-10T12:23:23;8.68;;;4.68;;
18249;SDS011;27980;52.126;5.572;2024-01-10T12:25:49;8.27;;;4.30;;
18249;SDS011;27980;52.126;5.572;2024-01-10T12:28:16;9.05;;;4.10;;
18249;SDS011;27980;52.126;5.572;2024-01-10T12:30:42;9.85;;;4.22;;
18249;SDS011;27980;52.126;5.572;2024-01-10T12:33:09;8.02;;;4.18;;
18249;SDS011;27980;52.126;5.572;2024-01-10T12:35:36;6.78;;;4.10;;
18249;SDS011;27980;52.126;5.572;2024-01-10T12:38:08;8.55;;;4.57;;
18249;SDS011;27980;52.126;5.572;2024-01-10T12:40:38;7.53;;;3.63;;
18249;SDS011;27980;52.126;5.572;2024-01-10T12:43:05;7.88;;;4.43;;
18249;SDS011;27980;52.126;5.572;2024-01-10T12:45:33;6.03;;;3.60;;
18249;SDS011;27980;52.126;5.572;2024-01-10T12:47:59;8.38;;;4.13;;
18249;SDS011;27980;52.126;5.572;2024-01-10T12:50:27;7.20;;;4.07;;
18249;SDS011;27980;52.126;5.572;2024-01-10T12:52:56;8.02;;;4.35;;
18249;SDS011;27980;52.126;5.572;2024-01-10T12:55:27;6.78;;;4.18;;
18249;SDS011;27980;52.126;5.572;2024-01-10T12:57:57;10.98;;;4.50;;
18249;SDS011;27980;52.126;5.572;2024-01-10T13:00:26;8.88;;;4.45;;
18249;SDS011;27980;52.126;5.572;2024-01-10T13:02:54;9.68;;;4.75;;
18249;SDS011;27980;52.126;5.572;2024-01-10T13:05:20;8.38;;;3.90;;
18249;SDS011;27980;52.126;5.572;2024-01-10T13:07:46;8.30;;;4.38;;
18249;SDS011;27980;52.126;5.572;2024-01-10T13:10:14;9.73;;;4.20;;
18249;SDS011;27980;52.126;5.572;2024-01-10T13:12:42;6.20;;;3.60;;
18249;SDS011;27980;52.126;5.572;2024-01-10T13:15:10;7.50;;;4.22;;
18249;SDS011;27980;52.126;5.572;2024-01-10T13:17:36;9.35;;;4.55;;
18249;SDS011;27980;52.126;5.572;2024-01-10T13:20:03;6.10;;;4.18;;
18249;SDS011;27980;52.126;5.572;2024-01-10T13:22:32;7.32;;;3.80;;
18249;SDS011;27980;52.126;5.572;2024-01-10T13:24:59;8.70;;;4.18;;
18249;SDS011;27980;52.126;5.572;2024-01-10T13:27:25;7.85;;;4.20;;
18249;SDS011;27980;52.126;5.572;2024-01-10T13:29:53;9.20;;;4.22;;
18249;SDS011;27980;52.126;5.572;2024-01-10T13:32:19;8.18;;;4.32;;
18249;SDS011;27980;52.126;5.572;2024-01-10T13:34:46;7.78;;;4.60;;
18249;SDS011;27980;52.126;5.572;2024-01-10T13:37:12;7.57;;;4.10;;
18249;SDS011;27980;52.126;5.572;2024-01-10T13:39:41;7.72;;;3.97;;
18249;SDS011;27980;52.126;5.572;2024-01-10T13:42:07;6.35;;;3.70;;
18249;SDS011;27980;52.126;5.572;2024-01-10T13:44:43;6.55;;;3.60;;
18249;SDS011;27980;52.126;5.572;2024-01-10T13:47:11;5.78;;;3.67;;
18249;SDS011;27980;52.126;5.572;2024-01-10T13:49:37;6.95;;;3.83;;
18249;SDS011;27980;52.126;5.572;2024-01-10T13:52:05;6.13;;;3.50;;
18249;SDS011;27980;52.126;5.572;2024-01-10T13:54:36;6.53;;;3.42;;
18249;SDS011;27980;52.126;5.572;2024-01-10T13:57:02;8.13;;;3.58;;
18249;SDS011;27980;52.126;5.572;2024-01-10T13:59:32;7.13;;;3.95;;
18249;SDS011;27980;52.126;5.572;2024-01-10T14:01:59;8.55;;;3.95;;
18249;SDS011;27980;52.126;5.572;2024-01-10T14:04:27;7.35;;;4.00;;
18249;SDS011;27980;52.126;5.572;2024-01-10T14:06:53;6.60;;;3.95;;
18249;SDS011;27980;52.126;5.572;2024-01-10T14:09:20;8.18;;;4.30;;
18249;SDS011;27980;52.126;5.572;2024-01-10T14:11:46;8.10;;;3.95;;
18249;SDS011;27980;52.126;5.572;2024-01-10T14:14:14;7.78;;;4.05;;
18249;SDS011;27980;52.126;5.572;2024-01-10T14:16:41;6.97;;;4.15;;
18249;SDS011;27980;52.126;5.572;2024-01-10T14:19:08;7.85;;;4.40;;
18249;SDS011;27980;52.126;5.572;2024-01-10T14:21:36;6.93;;;3.97;;
18249;SDS011;27980;52.126;5.572;2024-01-10T14:24:03;9.07;;;3.92;;
18249;SDS011;27980;52.126;5.572;2024-01-10T14:26:30;8.15;;;3.85;;
18249;SDS011;27980;52.126;5.572;2024-01-10T14:28:57;6.45;;;4.22;;
18249;SDS011;27980;52.126;5.572;2024-01-10T14:31:24;6.95;;;4.07;;
18249;SDS011;27980;52.126;5.572;2024-01-10T14:33:51;6.55;;;3.63;;
18249;SDS011;27980;52.126;5.572;2024-01-10T14:36:20;7.97;;;3.83;;
18249;SDS011;27980;52.126;5.572;2024-01-10T14:38:47;9.43;;;3.72;;
18249;SDS011;27980;52.126;5.572;2024-01-10T14:41:14;8.25;;;4.00;;
18249;SDS011;27980;52.126;5.572;2024-01-10T14:43:41;10.00;;;4.03;;
18249;SDS011;27980;52.126;5.572;2024-01-10T14:46:07;8.27;;;4.10;;
18249;SDS011;27980;52.126;5.572;2024-01-10T14:48:36;11.93;;;3.92;;
18249;SDS011;27980;52.126;5.572;2024-01-10T14:51:03;7.53;;;3.85;;
18249;SDS011;27980;52.126;5.572;2024-01-10T14:53:30;7.45;;;3.15;;
18249;SDS011;27980;52.126;5.572;2024-01-10T14:55:58;8.50;;;4.43;;
18249;SDS011;27980;52.126;5.572;2024-01-10T14:58:24;8.75;;;4.43;;